KMQY  Smyrna Airport

Add Bookmark

Smyrna, Tennessee, United States

Status Useage
Operational Public
Latitude Longitude
36° 0' 32" N 86° 31' 12" W
36.008972 -86.520083
Local (DST -5) UTC (GMT -6)
Dec 20, 2014 11:28 Dec 21, 2014 05:28
Sunrise-Sunset Local UTC
Begin Civil Twilight 06:22 12:22
Sunrise 06:51 12:51
Sunset 04:36 22:36
End Civil Twilight 05:05 23:05

Current Weather

METAR Observed VFR
KMQY 210456Z AUTO 00000KT 9SM CLR M03/M04 A3029 Sun, Dec 21, 2014 @ 04:56 UTC
(32 Minutes ago)
Visual Flight Rules
Wind Visibility Clouds Conditions
Calm 9 statute miles
  • Clear skies
  • No significant weather
Temperatures Readings Precipitation
Current Temp -3°C (27°F)
Dewpoint -4°C (25°F)
Humidity 93%
Altimeter 30.29"Hg
Sea Level Pressure 1027.1mb
Field Elevation 543'
None Recorded

Additional weather within a 50nm radius of KMQY

Map ICAO Location
KBNA 10.3nm N (312°)
KSYI 27.2nm S (173°)
KRNC 37.8nm E (119°)
KTHA 40nm S (161°)
KMRC 42.1nm S (230°)
KSRB 48.1nm E (086°)

24 Hour Weather History

Loading
-

24 Hour Weather Graphs

Loading
-

CheckWX.com is intended as a tool to help pilots better visualize weather data. It is not intended as a substitute for an official weather briefing obtained from a Flight Service Station. CheckWX.com does not meet the FAA requirements for an official pre-flight weather briefing. Therefore, it's important that pilots still call and obtain an official FSS pre-flight weather briefing.